ESOW/VST METAR and TAF weather

Enter ICAO airport designator
Station Type Date Time Source
ESOW METAR 2018/10/21 06:20 UTC NOAA

ESOW 210620Z 21010KT 9999 FEW010 07/05 Q1019


Station Type Date Time Source
ESOW Decoded METAR 2018/10/21 06:20 UTC NOAA

Vasteras / Hasslo, Sweden (ESOW) 59-35N 016-38E 31M
Oct 21, 2018 - 02:20 AM EDT / 2018.10.21 0620 UTC
Wind: from the SSW (210 degrees) at 12 MPH (10 KT):0
Visibility: greater than 7 mile(s):0
Sky conditions: mostly clear
Temperature: 44 F (7 C)
Dew Point: 41 F (5 C)
Relative Humidity: 87%
Pressure (altimeter): 30.09 in. Hg (1019 hPa)
ob: ESOW 210620Z 21010KT 9999 FEW010 07/05 Q1019
cycle: 6

Station Type Date Time Source
ESOW TAF 2016/10/26 04:36 UTC NOAA

TAF TAF ESOW 260330Z 2604/2624 VRB02KT CAVOK PROB40 2604/2607 1000 BCFG


Example: see airport list